Time;durP1;ratioP1;P1;durP2;ratioP2;P2;SDS_P1;SDS_P2;PMS_P1;PMS_P2;Temp;Humidity;BMP_temperature;BMP_pressure;BME280_temperature;BME280_humidity;BME280_pressure;Samples;Min_cycle;Max_cycle;Signal;HPM_P1;HPM_P2
2022/11/30 00:00:34;;;;;;;2.53;1.80;;;;;;;5.14;75.47;95043.31;5005788;28;20215;-64
2022/11/30 00:02:59;;;;;;;2.13;1.93;;;;;;;5.18;75.11;95038.69;4997915;28;20190;-63
2022/11/30 00:05:25;;;;;;;2.10;1.80;;;;;;;5.07;75.82;95049.94;5003062;28;20249;-63
2022/11/30 00:07:53;;;;;;;2.53;1.93;;;;;;;5.17;75.30;95052.69;5001945;28;20274;-63
2022/11/30 00:10:19;;;;;;;2.00;1.80;;;;;;;5.20;75.12;95042.84;5005491;28;20179;-64
2022/11/30 00:12:45;;;;;;;1.97;1.87;;;;;;;5.29;74.78;95043.91;5004167;28;20194;-64
2022/11/30 00:15:13;;;;;;;2.00;1.90;;;;;;;5.12;75.24;95060.84;4997240;28;20195;-65
2022/11/30 00:17:42;;;;;;;1.93;1.83;;;;;;;5.03;75.62;95058.97;5000351;28;20191;-65
2022/11/30 00:20:08;;;;;;;1.97;1.77;;;;;;;5.08;75.95;95052.44;5009490;28;20202;-64
2022/11/30 00:22:34;;;;;;;2.10;1.90;;;;;;;5.20;75.08;95066.31;5014340;28;20183;-65
2022/11/30 00:25:02;;;;;;;2.43;2.13;;;;;;;5.07;75.55;95066.41;4999009;28;20185;-64
2022/11/30 00:27:31;;;;;;;2.23;2.00;;;;;;;5.09;75.62;95067.13;5002621;28;20191;-66
2022/11/30 00:29:57;;;;;;;2.20;2.00;;;;;;;5.05;75.99;95062.25;5016936;28;20183;-64
2022/11/30 00:32:23;;;;;;;2.63;1.97;;;;;;;5.19;75.99;95074.25;5005920;28;20184;-64
2022/11/30 00:34:48;;;;;;;2.30;2.10;;;;;;;5.14;75.61;95068.56;5003672;28;20282;-65
2022/11/30 00:37:13;;;;;;;2.20;2.03;;;;;;;5.14;75.66;95066.78;5006106;28;20198;-65
2022/11/30 00:39:39;;;;;;;2.13;1.93;;;;;;;5.11;76.25;95074.03;5000533;28;20365;-64
2022/11/30 00:42:05;;;;;;;2.07;1.80;;;;;;;5.06;76.06;95063.94;5013955;28;20198;-64
2022/11/30 00:44:30;;;;;;;2.10;1.90;;;;;;;5.05;76.28;95064.88;4992272;28;20199;-64
2022/11/30 00:46:55;;;;;;;2.20;2.00;;;;;;;5.09;76.10;95066.31;5006344;28;20214;-64
2022/11/30 00:49:21;;;;;;;2.40;1.97;;;;;;;5.10;75.90;95060.13;5001171;28;20449;-64
2022/11/30 00:51:46;;;;;;;2.13;1.93;;;;;;;5.06;76.22;95062.16;5008428;28;20187;-64
2022/11/30 00:54:12;;;;;;;2.27;2.07;;;;;;;5.04;76.65;95058.81;5001905;28;20279;-64
2022/11/30 00:56:37;;;;;;;2.57;2.33;;;;;;;4.99;77.00;95060.13;4998401;28;20190;-64
2022/11/30 00:59:03;;;;;;;2.23;2.13;;;;;;;5.08;76.96;95049.84;4999122;28;20297;-64
2022/11/30 01:01:30;;;;;;;2.20;2.00;;;;;;;5.06;77.00;95061.31;5003959;28;20202;-64
2022/11/30 01:03:55;;;;;;;2.20;1.93;;;;;;;4.99;77.13;95058.34;5006067;28;20249;-64
2022/11/30 01:06:21;;;;;;;2.20;2.00;;;;;;;5.02;77.33;95057.28;5000941;28;20227;-65
2022/11/30 01:08:46;;;;;;;2.80;2.37;;;;;;;5.06;76.89;95051.72;5003364;28;20184;-65
2022/11/30 01:11:27;;;;;;;2.40;2.20;;;;;;;5.02;77.27;95044.25;4993171;28;20192;-65
2022/11/30 01:13:54;;;;;;;2.30;2.10;;;;;;;5.06;76.90;95048.28;5010152;28;20194;-64
2022/11/30 01:16:25;;;;;;;2.73;2.23;;;;;;;4.90;77.80;95045.19;5013211;28;20194;-64
2022/11/30 01:18:51;;;;;;;2.63;2.10;;;;;;;4.92;78.12;95044.16;4998893;28;20208;-64
2022/11/30 01:21:19;;;;;;;2.50;2.30;;;;;;;4.94;78.22;95052.66;5004724;28;20417;-64
2022/11/30 01:23:44;;;;;;;2.23;1.90;;;;;;;4.80;78.49;95045.06;5010030;28;20262;-64
2022/11/30 01:26:10;;;;;;;2.50;2.30;;;;;;;5.07;77.92;95048.16;5001414;28;20238;-64
2022/11/30 01:28:36;;;;;;;2.97;2.20;;;;;;;4.94;77.64;95049.22;5002474;28;20184;-64
2022/11/30 01:31:07;;;;;;;3.00;2.10;;;;;;;4.90;77.96;95055.63;5000785;28;20194;-64
2022/11/30 01:33:33;;;;;;;2.40;2.13;;;;;;;4.83;78.32;95048.25;5000395;28;20214;-64
2022/11/30 01:35:59;;;;;;;2.53;1.90;;;;;;;4.89;78.17;95046.13;5005689;28;20186;-64
2022/11/30 01:38:25;;;;;;;3.13;2.23;;;;;;;4.84;77.90;95054.31;5007390;28;20222;-64
2022/11/30 01:40:50;;;;;;;5.47;2.47;;;;;;;4.95;77.94;95056.09;5001307;28;20226;-65
2022/11/30 01:43:18;;;;;;;3.23;2.30;;;;;;;4.79;78.32;95046.84;5010103;28;20273;-64
2022/11/30 01:45:46;;;;;;;3.87;2.67;;;;;;;4.99;77.72;95049.69;5003091;28;20187;-64
2022/11/30 01:48:11;;;;;;;2.87;2.50;;;;;;;4.98;77.21;95045.44;5018268;28;20245;-64
2022/11/30 01:50:37;;;;;;;2.90;2.63;;;;;;;4.89;77.45;95046.94;5015813;28;20187;-63
2022/11/30 01:53:04;;;;;;;2.97;2.30;;;;;;;4.88;77.38;95047.91;5004108;28;20179;-64
2022/11/30 01:55:42;;;;;;;2.80;2.60;;;;;;;4.98;77.67;95042.84;5003137;28;20198;-64
2022/11/30 01:58:13;;;;;;;2.60;2.40;;;;;;;4.95;77.64;95045.69;5012954;28;20286;-65
2022/11/30 02:00:43;;;;;;;2.73;2.50;;;;;;;4.80;77.87;95030.25;5004811;28;20211;-63
2022/11/30 02:03:11;;;;;;;2.80;2.57;;;;;;;4.85;78.01;95048.16;5005382;28;20257;-64
2022/11/30 02:05:38;;;;;;;2.90;2.60;;;;;;;4.78;78.12;95039.94;5002839;28;20192;-64
2022/11/30 02:08:08;;;;;;;2.90;2.60;;;;;;;4.81;78.69;95037.16;4999122;28;20175;-64
2022/11/30 02:10:37;;;;;;;2.73;2.37;;;;;;;4.81;78.26;95028.47;4994583;28;20195;-64
2022/11/30 02:13:32;;;;;;;1.80;1.70;;;;;;;4.75;78.50;95026.34;5000189;28;20199;-64
2022/11/30 02:16:17;;;;;;;3.40;2.23;;;;;;;4.82;78.43;95037.97;5014995;28;20335;-64
2022/11/30 02:18:54;;;;;;;2.40;2.20;;;;;;;4.80;77.98;95037.25;4998857;28;20261;-64
2022/11/30 02:21:32;;;;;;;2.43;2.23;;;;;;;4.84;77.88;95039.50;4995070;28;20199;-64
2022/11/30 02:24:29;;;;;;;2.33;2.20;;;;;;;4.99;77.88;95037.50;5003943;28;20191;-63
2022/11/30 02:27:13;;;;;;;2.80;2.20;;;;;;;5.09;77.08;95041.06;5003119;28;20182;-64
2022/11/30 02:29:55;;;;;;;2.47;2.27;;;;;;;4.99;77.01;95039.28;4993682;28;20183;-64
2022/11/30 02:32:40;;;;;;;3.50;2.50;;;;;;;5.05;76.98;95025.78;4998879;28;20242;-64
2022/11/30 02:35:08;;;;;;;2.40;2.20;;;;;;;5.05;76.48;95044.00;5003331;28;20195;-64
2022/11/30 02:37:36;;;;;;;2.30;2.10;;;;;;;4.94;77.57;95037.00;5003824;28;20267;-64
2022/11/30 02:40:08;;;;;;;2.30;2.10;;;;;;;4.94;77.32;95028.38;5005980;28;20238;-64
2022/11/30 02:42:34;;;;;;;2.50;2.30;;;;;;;4.70;78.08;95041.47;5002882;28;20184;-64
2022/11/30 02:44:59;;;;;;;3.00;2.43;;;;;;;4.66;78.54;95022.66;5003881;28;20186;-64
2022/11/30 02:47:39;;;;;;;3.00;2.40;;;;;;;4.67;78.48;95024.31;5002928;28;20190;-64
2022/11/30 02:50:16;;;;;;;2.40;2.20;;;;;;;4.86;77.89;95035.03;5009609;28;20190;-64
2022/11/30 02:52:42;;;;;;;2.27;2.10;;;;;;;4.75;78.21;95028.94;5004744;28;20198;-65
2022/11/30 02:55:13;;;;;;;2.47;2.27;;;;;;;4.82;78.65;95037.97;5003924;28;20704;-64
2022/11/30 02:57:38;;;;;;;2.50;2.30;;;;;;;4.82;78.26;95033.59;5005862;28;20189;-64
2022/11/30 03:00:07;;;;;;;2.23;2.00;;;;;;;4.80;78.37;95025.03;4999834;28;20310;-64
2022/11/30 03:02:33;;;;;;;2.47;2.20;;;;;;;4.81;78.42;95031.94;5006447;28;20186;-65
2022/11/30 03:04:59;;;;;;;2.60;2.00;;;;;;;4.82;78.19;95032.75;5008037;28;20182;-64
2022/11/30 03:07:24;;;;;;;2.63;2.10;;;;;;;4.68;78.26;95028.59;5005897;28;20175;-64
2022/11/30 03:09:50;;;;;;;3.33;2.37;;;;;;;4.76;78.56;95023.63;5025436;28;20269;-64
2022/11/30 03:12:15;;;;;;;2.10;1.90;;;;;;;4.85;78.21;95033.34;5010305;28;20286;-64
2022/11/30 03:14:40;;;;;;;2.40;2.20;;;;;;;4.88;78.17;95027.06;5006836;28;20222;-64
2022/11/30 03:17:06;;;;;;;2.10;2.00;;;;;;;4.78;77.98;95024.31;5004330;28;20183;-64
2022/11/30 03:19:32;;;;;;;2.80;2.03;;;;;;;4.77;78.50;95038.31;5002059;28;20237;-65
2022/11/30 03:21:58;;;;;;;1.90;1.80;;;;;;;4.72;78.80;95029.19;5004054;28;20187;-64
2022/11/30 03:24:23;;;;;;;1.77;1.67;;;;;;;4.91;78.33;95028.63;5001969;28;20186;-64
2022/11/30 03:26:49;;;;;;;2.37;2.17;;;;;;;4.91;78.31;95041.63;5003813;28;20277;-64
2022/11/30 03:29:14;;;;;;;2.20;2.10;;;;;;;4.80;78.35;95027.66;5000531;28;20175;-64
2022/11/30 03:40:11;;;;;;;1.47;1.37;;;;;;;4.85;78.87;95035.13;5025109;28;20237;-65
2022/11/30 03:42:37;;;;;;;1.70;1.60;;;;;;;4.89;78.71;95031.31;5043864;28;20190;-64
2022/11/30 03:45:03;;;;;;;1.50;1.40;;;;;;;4.94;78.45;95033.59;5020467;28;20178;-64
2022/11/30 03:47:29;;;;;;;1.50;1.40;;;;;;;4.78;78.77;95026.94;5035520;28;20177;-65
2022/11/30 03:49:54;;;;;;;1.83;1.73;;;;;;;4.74;79.20;95043.75;5026972;28;20178;-65
2022/11/30 03:52:19;;;;;;;1.90;1.40;;;;;;;4.71;79.42;95036.16;5029439;28;20196;-65
2022/11/30 03:54:45;;;;;;;2.77;1.60;;;;;;;4.83;79.32;95039.63;5025622;28;20232;-64
2022/11/30 03:57:10;;;;;;;2.07;1.87;;;;;;;4.83;79.37;95037.00;5023369;28;20185;-65
2022/11/30 03:59:36;;;;;;;1.87;1.77;;;;;;;4.85;79.25;95048.97;5028174;28;20240;-66
2022/11/30 04:02:01;;;;;;;1.80;1.70;;;;;;;4.73;79.32;95044.72;5040686;28;20235;-65
2022/11/30 04:04:27;;;;;;;2.13;1.70;;;;;;;4.70;79.25;95034.50;5028654;28;20188;-65
2022/11/30 04:06:52;;;;;;;1.77;1.50;;;;;;;4.42;80.03;95044.38;5027009;28;20267;-63
2022/11/30 04:09:18;;;;;;;1.67;1.57;;;;;;;4.42;80.96;95038.34;5026941;28;20181;-64
2022/11/30 04:11:43;;;;;;;1.97;1.77;;;;;;;4.45;81.02;95047.72;5035320;28;20178;-64
2022/11/30 04:14:09;;;;;;;1.73;1.57;;;;;;;4.61;80.38;95036.03;5031289;28;20186;-64
2022/11/30 04:16:34;;;;;;;1.90;1.80;;;;;;;4.68;79.64;95032.94;5029368;28;20178;-64
2022/11/30 04:18:59;;;;;;;1.77;1.20;;;;;;;4.75;79.57;95042.78;5033409;28;20210;-64
2022/11/30 04:21:25;;;;;;;1.77;1.30;;;;;;;4.74;79.41;95050.75;5021358;28;20190;-63
2022/11/30 04:23:51;;;;;;;1.30;1.20;;;;;;;4.85;79.25;95053.34;5031822;28;20264;-64
2022/11/30 04:26:16;;;;;;;1.30;1.20;;;;;;;4.80;79.26;95056.31;5025954;28;20198;-64
2022/11/30 04:28:42;;;;;;;1.37;1.10;;;;;;;4.74;78.81;95055.94;5031331;28;20184;-63
2022/11/30 04:31:08;;;;;;;1.40;1.30;;;;;;;4.69;79.22;95058.88;5032049;28;20177;-64
2022/11/30 04:33:34;;;;;;;1.40;1.07;;;;;;;4.67;79.67;95052.97;5031372;28;20235;-64
2022/11/30 04:36:03;;;;;;;1.13;1.03;;;;;;;4.58;79.93;95048.44;5021244;28;20188;-64
2022/11/30 04:38:29;;;;;;;0.97;0.97;;;;;;;4.71;80.09;95054.41;5026818;28;20245;-64
2022/11/30 04:40:55;;;;;;;2.07;1.57;;;;;;;4.77;79.85;95047.91;5021574;28;20222;-64
2022/11/30 04:43:21;;;;;;;2.10;1.33;;;;;;;4.77;79.80;95048.72;5039142;28;20192;-65
2022/11/30 04:45:47;;;;;;;1.13;1.03;;;;;;;4.77;79.60;95043.50;5029507;28;20209;-64
2022/11/30 04:48:14;;;;;;;1.30;1.20;;;;;;;4.77;79.63;95055.72;5028399;28;20182;-64
2022/11/30 04:50:39;;;;;;;1.63;1.23;;;;;;;4.77;79.42;95051.34;5028357;28;20198;-65
2022/11/30 04:53:05;;;;;;;2.00;1.70;;;;;;;4.78;79.48;95045.16;5031073;28;20188;-63
2022/11/30 04:55:31;;;;;;;1.50;1.40;;;;;;;4.71;79.72;95064.00;5022437;28;20181;-64
2022/11/30 04:57:56;;;;;;;2.73;1.40;;;;;;;4.69;80.74;95053.69;5021693;28;20208;-63
2022/11/30 05:00:22;;;;;;;1.50;1.40;;;;;;;4.79;79.59;95059.88;5019933;28;20205;-63
2022/11/30 05:02:47;;;;;;;1.40;1.30;;;;;;;4.73;79.68;95073.38;5027272;28;20186;-64
2022/11/30 05:05:13;;;;;;;1.47;1.37;;;;;;;4.67;79.74;95065.97;5029724;28;20189;-63
2022/11/30 05:07:39;;;;;;;1.63;1.37;;;;;;;4.72;79.70;95058.66;5026490;28;20208;-64
2022/11/30 05:10:05;;;;;;;1.57;1.30;;;;;;;4.54;80.15;95055.66;5030134;28;20190;-63
2022/11/30 05:12:31;;;;;;;1.40;1.30;;;;;;;4.68;79.84;95061.59;5036409;28;20192;-64
2022/11/30 05:14:56;;;;;;;1.50;1.40;;;;;;;4.56;80.01;95064.19;5021344;28;20178;-65
2022/11/30 05:17:22;;;;;;;3.33;3.00;;;;;;;4.64;80.01;95074.03;5027055;28;20186;-64
2022/11/30 05:19:47;;;;;;;2.10;1.37;;;;;;;4.54;79.97;95067.84;5028691;28;20264;-63
2022/11/30 05:22:13;;;;;;;1.80;1.10;;;;;;;4.74;79.68;95079.41;5027868;28;20193;-64
2022/11/30 05:24:38;;;;;;;1.43;1.33;;;;;;;4.85;78.81;95072.41;5024897;28;20265;-64
2022/11/30 05:27:04;;;;;;;1.83;1.40;;;;;;;4.80;78.74;95081.53;5024439;28;20189;-64
2022/11/30 05:29:30;;;;;;;1.43;1.33;;;;;;;4.73;79.11;95072.50;5028121;28;20402;-64
2022/11/30 05:31:55;;;;;;;2.43;1.63;;;;;;;4.75;78.87;95068.03;5027327;28;20196;-64
2022/11/30 05:34:21;;;;;;;3.80;1.80;;;;;;;4.76;78.95;95070.53;5026675;28;20189;-64
2022/11/30 05:36:46;;;;;;;2.40;1.70;;;;;;;4.75;79.14;95073.22;5022669;28;20272;-64
2022/11/30 05:39:11;;;;;;;1.50;1.37;;;;;;;4.66;79.03;95071.31;5018995;28;20208;-64
2022/11/30 05:41:37;;;;;;;2.07;1.60;;;;;;;4.67;78.82;95088.59;5022360;28;20182;-64
2022/11/30 05:44:03;;;;;;;2.07;1.40;;;;;;;4.58;78.61;95082.31;5029204;28;20272;-64
2022/11/30 05:46:28;;;;;;;2.90;2.60;;;;;;;4.64;78.61;95081.84;5009063;28;20190;-64
2022/11/30 05:48:54;;;;;;;3.33;2.00;;;;;;;4.67;79.27;95079.00;5023158;28;20263;-65
2022/11/30 05:51:20;;;;;;;1.93;1.80;;;;;;;4.52;78.99;95091.41;5025598;28;20200;-65
2022/11/30 05:53:46;;;;;;;2.70;1.80;;;;;;;4.70;78.89;95086.59;5022634;28;20190;-64
2022/11/30 05:56:21;;;;;;;2.27;1.53;;;;;;;4.75;78.68;95088.84;5024398;28;20198;-64
2022/11/30 05:58:47;;;;;;;2.00;1.90;;;;;;;4.68;78.68;95093.72;5025686;28;20234;-64
2022/11/30 06:01:19;;;;;;;2.37;1.97;;;;;;;4.69;79.18;95092.75;5025290;28;20193;-63
2022/11/30 06:03:45;;;;;;;2.73;1.80;;;;;;;4.63;79.16;95095.81;5025668;28;20217;-64
2022/11/30 06:06:10;;;;;;;3.03;1.80;;;;;;;4.64;79.54;95087.88;5024582;28;20223;-64
2022/11/30 06:08:35;;;;;;;1.70;1.60;;;;;;;4.71;79.20;95100.47;5034003;28;20211;-64
2022/11/30 06:11:01;;;;;;;2.10;1.80;;;;;;;4.86;78.42;95107.97;5028975;28;20247;-64
2022/11/30 06:13:27;;;;;;;3.00;1.87;;;;;;;4.79;78.47;95116.34;5026893;28;20197;-64
2022/11/30 06:15:52;;;;;;;1.80;1.70;;;;;;;4.69;78.83;95104.94;5019172;28;20192;-65
2022/11/30 06:18:18;;;;;;;2.20;1.70;;;;;;;4.73;78.40;95115.03;5023239;28;20185;-63
2022/11/30 06:20:43;;;;;;;3.83;1.80;;;;;;;4.98;77.57;95114.03;5024835;28;20209;-66
2022/11/30 06:23:09;;;;;;;1.93;1.70;;;;;;;4.74;76.97;95114.09;5030206;28;20209;-67
2022/11/30 06:25:34;;;;;;;3.50;1.70;;;;;;;4.77;78.18;95118.25;5024358;28;20196;-67
2022/11/30 06:28:00;;;;;;;2.20;1.70;;;;;;;4.73;78.08;95117.66;5022059;28;20300;-67
2022/11/30 06:30:25;;;;;;;3.20;1.87;;;;;;;4.75;77.45;95110.53;5022097;28;20182;-67
2022/11/30 06:32:51;;;;;;;1.87;1.77;;;;;;;4.62;78.47;95110.63;5039019;28;20201;-65
2022/11/30 06:35:17;;;;;;;2.33;1.73;;;;;;;4.70;77.57;95115.25;5021280;28;20225;-64
2022/11/30 06:37:43;;;;;;;2.27;1.70;;;;;;;4.74;77.57;95116.69;5021889;28;20206;-62
2022/11/30 06:40:11;;;;;;;2.03;1.83;;;;;;;4.79;77.48;95106.75;5026177;28;20255;-62
2022/11/30 06:42:37;;;;;;;1.97;1.80;;;;;;;4.87;77.08;95119.22;5027770;28;20184;-62
2022/11/30 06:45:05;;;;;;;3.73;1.70;;;;;;;5.02;76.80;95119.81;5021761;28;20185;-62
2022/11/30 06:47:31;;;;;;;2.33;2.13;;;;;;;4.96;77.04;95123.72;5021775;28;20262;-61
2022/11/30 06:49:56;;;;;;;3.23;2.50;;;;;;;4.97;76.92;95127.16;5020822;28;20189;-62
2022/11/30 06:52:22;;;;;;;2.07;1.80;;;;;;;4.91;77.02;95119.81;5029596;28;20189;-62
2022/11/30 06:54:47;;;;;;;3.57;1.97;;;;;;;4.88;77.19;95125.25;5022895;28;20177;-63
2022/11/30 06:57:13;;;;;;;2.73;1.70;;;;;;;5.00;77.31;95119.13;5021878;28;20204;-63
2022/11/30 06:59:41;;;;;;;2.97;1.90;;;;;;;5.09;77.06;95118.44;5023340;28;20269;-62
2022/11/30 07:02:11;;;;;;;2.80;2.03;;;;;;;5.16;76.26;95129.22;5031603;28;20188;-62
2022/11/30 07:04:36;;;;;;;2.10;1.90;;;;;;;5.05;76.50;95123.06;5042499;28;20174;-62
2022/11/30 07:07:02;;;;;;;2.53;1.67;;;;;;;5.01;77.29;95121.59;5021296;28;20182;-62
2022/11/30 07:09:27;;;;;;;1.93;1.70;;;;;;;5.06;76.89;95119.50;5025301;28;20182;-63
2022/11/30 07:11:53;;;;;;;1.67;1.53;;;;;;;5.11;76.22;95115.72;5024544;28;20239;-62
2022/11/30 07:14:18;;;;;;;3.13;1.83;;;;;;;5.16;76.57;95113.56;5026011;28;20178;-62
2022/11/30 07:16:44;;;;;;;2.80;1.60;;;;;;;5.23;76.46;95114.78;5009692;28;20214;-63
2022/11/30 07:19:09;;;;;;;2.83;2.07;;;;;;;5.12;76.15;95126.00;5031506;28;20424;-65
2022/11/30 07:21:35;;;;;;;2.67;1.83;;;;;;;5.13;76.43;95111.19;5030305;28;20221;-64
2022/11/30 07:26:44;;;;;;;2.57;2.13;;;;;;;5.22;76.01;95123.56;5016552;28;20188;-65
2022/11/30 07:29:09;;;;;;;4.03;2.03;;;;;;;5.33;75.54;95105.31;5014209;28;20205;-63
2022/11/30 07:31:35;;;;;;;2.33;1.80;;;;;;;5.20;75.26;95110.63;5020006;28;20186;-65
2022/11/30 07:34:06;;;;;;;1.93;1.77;;;;;;;5.30;75.56;95121.19;5021655;28;20197;-68
2022/11/30 07:36:32;;;;;;;2.67;1.93;;;;;;;5.27;75.38;95117.03;5027215;28;20232;-64
2022/11/30 07:38:57;;;;;;;5.30;2.20;;;;;;;5.38;74.64;95113.59;5007219;28;20205;-65
2022/11/30 07:41:23;;;;;;;2.57;1.87;;;;;;;5.37;74.70;95114.53;5024416;28;20201;-64
2022/11/30 07:43:49;;;;;;;2.70;1.97;;;;;;;5.31;75.38;95110.63;5024423;28;20194;-67
2022/11/30 07:46:15;;;;;;;3.13;1.93;;;;;;;5.54;74.84;95108.03;5021137;28;20233;-68
2022/11/30 07:48:41;;;;;;;2.10;1.90;;;;;;;5.57;74.67;95093.94;5024048;28;20238;-66
2022/11/30 07:51:32;;;;;;;3.03;1.83;;;;;;;5.63;74.07;95101.28;5025597;28;20248;-71
2022/11/30 07:53:58;;;;;;;3.27;2.00;;;;;;;5.53;74.45;95093.31;5025556;28;20267;-70
2022/11/30 07:56:25;;;;;;;1.60;1.50;;;;;;;5.59;74.38;95103.31;5036532;28;20213;-70
2022/11/30 07:58:54;;;;;;;3.23;1.70;;;;;;;5.57;74.42;95092.16;5022780;28;20190;-69
2022/11/30 08:01:22;;;;;;;2.47;1.67;;;;;;;5.54;74.27;95110.66;5021335;28;20198;-70
2022/11/30 08:03:49;;;;;;;2.60;1.33;;;;;;;5.43;74.19;95102.84;5024623;28;20192;-70
2022/11/30 08:06:20;;;;;;;1.87;1.70;;;;;;;5.49;74.81;95099.75;5023778;28;20186;-67
2022/11/30 08:08:49;;;;;;;1.93;1.60;;;;;;;5.56;74.07;95102.69;5021598;28;20196;-65
2022/11/30 08:11:16;;;;;;;6.20;1.83;;;;;;;5.48;74.20;95104.13;5020886;28;20188;-67
2022/11/30 08:13:42;;;;;;;3.27;1.53;;;;;;;5.40;74.05;95110.88;5019144;28;20185;-66
2022/11/30 08:16:11;;;;;;;1.50;1.40;;;;;;;5.36;74.49;95104.25;5026185;28;20276;-68
2022/11/30 08:18:37;;;;;;;1.80;1.53;;;;;;;5.29;74.10;95106.47;5019747;28;20269;-63
2022/11/30 08:21:04;;;;;;;2.03;1.40;;;;;;;5.46;74.11;95108.63;5022148;28;20193;-64
2022/11/30 08:23:32;;;;;;;3.43;1.30;;;;;;;5.53;74.31;95115.03;5027101;28;20533;-68
2022/11/30 08:26:05;;;;;;;1.63;1.53;;;;;;;5.57;73.85;95102.59;5017427;28;20224;-65
2022/11/30 08:28:37;;;;;;;3.23;2.20;;;;;;;5.69;72.95;95104.25;5023554;28;20186;-65
2022/11/30 08:31:08;;;;;;;2.13;1.60;;;;;;;5.62;73.51;95097.84;5021960;28;20185;-68
2022/11/30 08:33:35;;;;;;;5.43;3.50;;;;;;;5.67;73.20;95098.31;5021753;28;20209;-65
2022/11/30 08:36:19;;;;;;;2.27;2.00;;;;;;;5.75;72.86;95114.19;5023147;28;20185;-64
2022/11/30 08:38:46;;;;;;;4.57;2.40;;;;;;;5.63;73.34;95115.13;5022966;28;20175;-66
2022/11/30 08:41:15;;;;;;;2.33;1.70;;;;;;;5.51;73.61;95105.69;4997173;28;20235;-67
2022/11/30 08:43:41;;;;;;;2.13;1.50;;;;;;;5.73;72.51;95110.03;5010119;28;20194;-67
2022/11/30 08:46:09;;;;;;;3.97;1.70;;;;;;;5.48;73.48;95109.34;4993473;28;20194;-63
2022/11/30 08:48:34;;;;;;;1.40;1.30;;;;;;;5.55;73.45;95112.31;4997971;28;20191;-67
2022/11/30 08:51:01;;;;;;;1.83;1.47;;;;;;;5.59;73.83;95113.72;4992251;28;20285;-64
2022/11/30 08:53:27;;;;;;;1.50;1.40;;;;;;;5.58;73.19;95106.84;4995263;28;20199;-66
2022/11/30 08:56:02;;;;;;;1.37;1.27;;;;;;;5.63;72.89;95101.28;4997893;28;20187;-66
2022/11/30 08:58:30;;;;;;;1.47;1.37;;;;;;;5.71;72.54;95109.31;4991857;28;20206;-65
2022/11/30 09:01:07;;;;;;;3.10;1.37;;;;;;;5.73;72.84;95105.66;4997354;28;20215;-65
2022/11/30 09:03:33;;;;;;;3.27;1.53;;;;;;;5.81;72.39;95102.44;4991191;28;20191;-65
2022/11/30 09:06:07;;;;;;;2.20;1.60;;;;;;;5.69;72.41;95099.03;4988975;28;20275;-65
2022/11/30 09:08:34;;;;;;;1.73;1.43;;;;;;;5.65;73.29;95110.63;4995935;28;20218;-70
2022/11/30 09:11:19;;;;;;;4.37;1.60;;;;;;;5.70;72.82;95108.50;4996173;28;20274;-65
2022/11/30 09:13:45;;;;;;;1.67;1.50;;;;;;;5.78;72.29;95109.69;4999438;28;20195;-64
2022/11/30 09:16:12;;;;;;;2.60;1.80;;;;;;;5.64;73.32;95114.22;4997658;28;20287;-67
2022/11/30 09:18:38;;;;;;;2.93;1.40;;;;;;;5.62;73.26;95105.66;4992566;28;20334;-68
2022/11/30 09:21:07;;;;;;;1.40;1.30;;;;;;;5.74;72.90;95106.47;4994825;28;20273;-66
2022/11/30 09:23:33;;;;;;;2.50;1.60;;;;;;;5.69;72.74;95108.59;4992983;28;20254;-65
2022/11/30 09:26:01;;;;;;;1.70;1.60;;;;;;;5.71;73.21;95115.38;4997821;28;20186;-68
2022/11/30 09:28:31;;;;;;;1.70;1.30;;;;;;;5.72;73.15;95122.25;5000565;28;20213;-66
2022/11/30 09:31:05;;;;;;;1.60;1.50;;;;;;;5.74;72.71;95112.53;4991699;28;20260;-67
2022/11/30 09:33:32;;;;;;;1.80;1.60;;;;;;;5.85;73.02;95116.91;4995644;28;20214;-64
2022/11/30 09:36:00;;;;;;;2.23;1.60;;;;;;;5.83;73.23;95118.00;4996195;28;20329;-64
2022/11/30 09:38:26;;;;;;;4.23;2.20;;;;;;;5.86;73.51;95125.56;4997112;28;20219;-64
2022/11/30 09:40:57;;;;;;;2.40;2.20;;;;;;;5.79;73.82;95120.00;4998103;28;20266;-66
2022/11/30 09:43:35;;;;;;;5.07;1.90;;;;;;;6.03;72.66;95119.06;4999572;28;20215;-65
2022/11/30 09:46:04;;;;;;;2.43;1.90;;;;;;;5.99;72.73;95123.69;4994823;28;20201;-63
2022/11/30 09:48:36;;;;;;;3.30;2.10;;;;;;;6.08;72.67;95124.75;5000072;28;20214;-63
2022/11/30 09:51:10;;;;;;;2.90;2.00;;;;;;;6.13;72.34;95125.22;4996314;28;20286;-64
2022/11/30 09:53:44;;;;;;;1.93;1.70;;;;;;;6.16;72.10;95132.78;4994885;28;20183;-68
2022/11/30 09:56:33;;;;;;;2.37;1.70;;;;;;;6.03;72.05;95119.88;4996741;28;20286;-66
2022/11/30 09:59:13;;;;;;;2.07;1.87;;;;;;;6.14;71.72;95126.84;4993279;28;20203;-69
2022/11/30 10:01:38;;;;;;;2.20;1.90;;;;;;;6.07;71.58;95116.09;4991180;28;20190;-64
2022/11/30 10:04:05;;;;;;;2.53;1.97;;;;;;;6.09;72.19;95114.16;4998640;28;20226;-62
2022/11/30 10:06:47;;;;;;;3.80;1.67;;;;;;;6.05;72.02;95117.97;4996132;28;20213;-67
2022/11/30 10:09:31;;;;;;;3.23;2.07;;;;;;;6.13;72.28;95114.75;4994679;28;20190;-67
2022/11/30 10:12:18;;;;;;;2.37;1.70;;;;;;;6.22;71.79;95116.63;4995017;28;20199;-66
2022/11/30 10:14:55;;;;;;;2.17;1.60;;;;;;;6.16;71.87;95122.34;4990720;28;20198;-66
2022/11/30 10:17:21;;;;;;;2.30;1.80;;;;;;;6.21;72.34;95114.16;4994892;28;20198;-66
2022/11/30 10:20:01;;;;;;;1.60;1.50;;;;;;;6.11;71.90;95114.88;4995581;28;20210;-67
2022/11/30 10:22:46;;;;;;;2.97;1.57;;;;;;;6.05;73.05;95101.50;4992589;28;20294;-65
2022/11/30 10:25:55;;;;;;;2.37;1.80;;;;;;;6.07;72.61;95110.03;5006093;28;20220;-65
2022/11/30 10:28:33;;;;;;;3.20;1.70;;;;;;;6.00;73.17;95099.25;5002691;28;20194;-68
2022/11/30 10:31:00;;;;;;;3.17;1.80;;;;;;;6.11;73.24;95098.38;5004859;28;20187;-66
2022/11/30 10:33:31;;;;;;;2.70;1.90;;;;;;;6.08;73.09;95094.25;4994995;28;20189;-63
2022/11/30 10:36:05;;;;;;;2.80;1.70;;;;;;;6.11;73.45;95106.22;4994672;28;20183;-63
2022/11/30 10:38:42;;;;;;;3.73;2.43;;;;;;;6.02;73.92;95102.56;4999868;28;20194;-63
2022/11/30 10:41:23;;;;;;;2.20;1.90;;;;;;;5.97;74.05;95099.50;5002508;28;20398;-64
2022/11/30 10:44:16;;;;;;;1.93;1.70;;;;;;;6.09;73.81;95097.66;4992039;28;20343;-64
2022/11/30 10:46:50;;;;;;;1.93;1.53;;;;;;;6.04;73.83;95086.75;4925927;29;20842;-63
2022/11/30 10:49:18;;;;;;;2.97;1.70;;;;;;;6.09;73.83;95092.44;4907278;29;20719;-64
2022/11/30 10:51:49;;;;;;;1.80;1.70;;;;;;;6.01;74.02;95092.22;4905739;29;20234;-64
2022/11/30 10:54:18;;;;;;;1.70;1.43;;;;;;;6.00;74.60;95086.19;4921969;29;20281;-64
2022/11/30 10:56:43;;;;;;;4.03;1.90;;;;;;;6.05;74.73;95083.22;4909169;29;20215;-64
2022/11/30 10:59:15;;;;;;;1.60;1.50;;;;;;;6.01;73.86;95081.78;4912236;29;20218;-64
2022/11/30 11:01:41;;;;;;;1.50;1.40;;;;;;;5.99;74.37;95096.75;4902034;29;20199;-65
2022/11/30 11:04:21;;;;;;;1.63;1.53;;;;;;;6.19;74.00;95082.94;4907093;29;20275;-67
2022/11/30 11:07:08;;;;;;;1.70;1.60;;;;;;;6.01;73.40;95071.34;4913086;29;20217;-63
2022/11/30 11:09:38;;;;;;;2.03;1.83;;;;;;;6.07;74.28;95079.53;4913920;29;20188;-63
2022/11/30 11:12:23;;;;;;;2.10;1.90;;;;;;;6.11;73.74;95073.09;4914774;29;20233;-63
2022/11/30 11:15:07;;;;;;;2.80;2.50;;;;;;;6.16;73.49;95064.91;4902859;29;20194;-64
2022/11/30 11:17:33;;;;;;;4.17;2.57;;;;;;;6.14;73.77;95070.25;4896844;29;20213;-64
2022/11/30 11:19:58;;;;;;;3.70;2.33;;;;;;;6.12;73.98;95064.34;4913429;29;20212;-64
2022/11/30 11:22:26;;;;;;;2.57;2.03;;;;;;;6.00;74.28;95073.13;4912606;29;20193;-64
2022/11/30 11:25:18;;;;;;;4.20;2.40;;;;;;;6.13;73.91;95078.22;4998549;28;20210;-64
2022/11/30 11:27:51;;;;;;;3.33;2.03;;;;;;;5.99;74.67;95065.41;5013993;28;20253;-63
2022/11/30 11:30:26;;;;;;;2.67;2.10;;;;;;;5.94;74.48;95071.84;4996685;28;20183;-63
2022/11/30 11:33:00;;;;;;;3.03;2.73;;;;;;;5.73;76.15;95071.72;4999856;28;20187;-64
2022/11/30 11:35:39;;;;;;;4.50;2.47;;;;;;;6.14;74.02;95066.81;4997956;28;20211;-61
2022/11/30 11:38:24;;;;;;;3.10;2.90;;;;;;;6.17;73.56;95069.16;5000839;28;20215;-63
2022/11/30 11:41:22;;;;;;;2.57;2.20;;;;;;;6.15;74.89;95076.31;5000246;28;20230;-62
2022/11/30 11:44:02;;;;;;;2.63;2.13;;;;;;;6.19;74.29;95068.09;5005487;28;20205;-61
2022/11/30 11:46:30;;;;;;;3.73;2.30;;;;;;;6.21;73.98;95069.78;5002287;28;20198;-61
2022/11/30 11:48:57;;;;;;;3.40;2.43;;;;;;;6.18;74.41;95076.06;4999557;28;20355;-62
2022/11/30 11:51:38;;;;;;;3.13;2.50;;;;;;;6.19;73.80;95070.69;5000167;28;20460;-61
2022/11/30 11:54:27;;;;;;;3.50;2.43;;;;;;;6.14;73.99;95057.19;4997170;28;20191;-65
2022/11/30 11:56:56;;;;;;;3.20;2.20;;;;;;;6.15;73.81;95061.47;5001989;28;20199;-65
2022/11/30 11:59:39;;;;;;;4.67;2.60;;;;;;;6.12;73.99;95063.47;4996120;28;20294;-65
2022/11/30 12:02:17;;;;;;;3.07;2.10;;;;;;;6.09;74.21;95069.78;5004270;28;20318;-66